West Chicago, IL (60185)

10:11 AM CDT die 30o October, anno 2014 (GMT -0500)
Ingalton Hills Estates | Change Station
CLOSE
Current Station
Personal Weather Stations
Location: West Chicago, IL
Elevation: 780 ft
Nearby Weather Stations

Elev 780 ft 41.91 °N, 88.20 °W | Updated 1 second ago

Clear
Serena
46.0 °F
Feels Like 43 °F
N
5.8
Ventus Variabilis Ventus from Auster
Gusts 5.8 mph

Hodie
High -- | Low -- °F
--% Chance of Precip.
Yesterday
High -- | Low -- °F
Precip. -- in
7:22 AM 5:49 PM
Waxing Crescent, 44% visible
Pressio 30.16 in
Visibilitas 8.0 milia passuum
Clouds Serena
Frigus Venti 43 °F
Frigus in quo Ros apparet 40 °F
Umor 79%
Rainfall 0.00 in
Snow Depth Not available.
UV 1 out of 12
Pollen .20 out of 12
Air Quality Not available.
Flu Activity Not available.
METAR KDPA 301352Z 18003KT 8SM CLR 02/01 A3013 RMK AO2 SLP211 T00220006

More Conditions Fewer Conditions

Pressio 30.16 in
Visibilitas 8.0 milia passuum
Clouds Serena
Frigus Venti 43 °F
Frigus in quo Ros apparet 40 °F
Umor 79%
Rainfall 0.00 in
Snow Depth Not available.
UV 1 out of 12
Pollen .20 out of 12
Air Quality Not available.
Flu Activity Not available.
METAR KDPA 301352Z 18003KT 8SM CLR 02/01 A3013 RMK AO2 SLP211 T00220006

More Conditions Fewer Conditions

10-Day Weather Forecast

Almanac

Astronomy

Oct. 30, 2014 Rise Set
Actual Time
Civil Twilight
Nautical Twilight
Astronomical Twilight
Moon
Length Of Visible Light
Length of Day
Tomorrow will be .
, % of the Moon is Illuminated

Today's Extremes

State Highs State Lows

Community

WunderPhotos

Upload Photos

1,766,387 photos uploaded!

WunderBlogs® & News

Nearby

Air Quality

  Air Quality AQ Index Pollutant
Not available.

Snow Depth

Station Depth Elevation

Earthquake Activity

City Distance Mag. Time & Date
Minimum magnitude displayed is 2.5.

Coastal Water Temperatures

Locus Calor

Nearby Weather Stations